Time;durP1;ratioP1;P1;durP2;ratioP2;P2;SDS_P1;SDS_P2;PMS_P1;PMS_P2;Temp;Humidity;BMP_temperature;BMP_pressure;BME280_temperature;BME280_humidity;BME280_pressure;Samples;Min_cycle;Max_cycle;Signal;HPM_P1;HPM_P2
2021/06/29 00:00:31;;;;;;;93.95;54.45;;;;;;;23.74;72.18;99094.91;5151877;27;20671;-83
2021/06/29 00:03:26;;;;;;;110.93;58.53;;;;;;;23.71;72.48;99084.41;5192326;27;20547;-83
2021/06/29 00:06:22;;;;;;;102.43;57.00;;;;;;;23.68;72.65;99090.28;5193786;27;20401;-82
2021/06/29 00:09:25;;;;;;;92.03;54.15;;;;;;;23.72;72.57;99092.34;5106347;27;20350;-82
2021/06/29 00:12:16;;;;;;;87.45;48.80;;;;;;;23.72;72.21;99086.06;5121658;27;20410;-82
2021/06/29 00:15:12;;;;;;;75.70;46.00;;;;;;;23.72;72.46;99083.34;5193414;27;20374;-82
2021/06/29 00:17:48;;;;;;;77.65;41.53;;;;;;;23.69;72.21;99086.50;4508037;27;18678715;-81
2021/06/29 00:20:58;;;;;;;67.32;41.08;;;;;;;23.72;72.21;99080.63;5149855;27;20438;-82
2021/06/29 00:23:53;;;;;;;70.05;40.28;;;;;;;23.71;72.19;99082.50;5193736;27;20551;-82
2021/06/29 00:27:03;;;;;;;67.72;41.83;;;;;;;23.77;72.01;99089.00;5128811;27;20222;-81
2021/06/29 00:29:58;;;;;;;61.05;42.05;;;;;;;23.59;72.56;99091.53;5193756;27;20386;-82
2021/06/29 00:32:53;;;;;;;59.17;40.63;;;;;;;23.54;72.59;99094.06;5151879;27;20122;-84
2021/06/29 00:35:48;;;;;;;69.75;41.20;;;;;;;23.52;72.88;99095.09;5193747;27;20911;-83
2021/06/29 00:38:43;;;;;;;54.95;38.55;;;;;;;23.54;72.60;99094.88;5193816;27;20394;-84
2021/06/29 00:41:38;;;;;;;59.92;40.85;;;;;;;23.55;72.24;99084.84;5193800;27;20398;-84
2021/06/29 00:44:34;;;;;;;65.80;39.10;;;;;;;23.55;72.46;99090.28;5193826;27;20466;-85
2021/06/29 00:47:30;;;;;;;51.78;38.03;;;;;;;23.59;72.31;99086.91;5151940;27;20324;-83
2021/06/29 00:50:25;;;;;;;50.65;37.13;;;;;;;23.62;71.93;99091.97;5193950;27;20402;-84
2021/06/29 00:53:32;;;;;;;57.67;36.30;;;;;;;23.73;71.95;99093.19;5088262;28;20344;-84
2021/06/29 00:56:26;;;;;;;57.25;37.38;;;;;;;23.69;71.55;99089.22;5193729;27;20417;-84
2021/06/29 00:59:21;;;;;;;55.80;39.38;;;;;;;23.65;71.60;99093.41;5151968;27;20130;-83
2021/06/29 01:02:17;;;;;;;59.83;40.80;;;;;;;23.58;71.89;99090.69;5193820;27;20386;-83
2021/06/29 01:05:13;;;;;;;60.10;39.90;;;;;;;23.55;71.93;99087.56;5176791;27;20604;-80
2021/06/29 01:08:10;;;;;;;58.97;39.00;;;;;;;23.46;72.13;99082.31;5151850;27;20407;-84
2021/06/29 01:11:05;;;;;;;51.90;34.58;;;;;;;23.13;73.18;99076.03;5151909;27;20493;-82
2021/06/29 01:14:12;;;;;;;46.47;33.25;;;;;;;23.09;73.11;99082.97;5115032;27;20410;-85
2021/06/29 01:17:07;;;;;;;44.38;32.38;;;;;;;23.10;73.26;99080.06;5119707;27;20395;-84
2021/06/29 01:20:07;;;;;;;68.80;42.20;;;;;;;23.11;72.99;99078.16;5193876;27;20523;-84
2021/06/29 01:23:08;;;;;;;56.00;38.63;;;;;;;23.10;73.15;99082.78;5194091;27;20394;-84
2021/06/29 01:26:12;;;;;;;47.97;31.92;;;;;;;22.98;73.40;99084.44;5193849;27;20390;-81
2021/06/29 01:29:06;;;;;;;42.25;28.88;;;;;;;22.83;73.97;99084.63;5194876;27;20732;-83
2021/06/29 01:32:17;;;;;;;35.83;26.98;;;;;;;22.89;73.52;99086.50;5149585;27;20406;-84
2021/06/29 01:35:12;;;;;;;50.38;25.85;;;;;;;22.95;73.39;99085.72;5193885;27;20401;-81
2021/06/29 01:38:15;;;;;;;35.47;27.50;;;;;;;23.03;73.38;99085.50;5193735;27;20390;-80
2021/06/29 01:41:13;;;;;;;42.15;28.63;;;;;;;23.10;72.92;99076.50;5119727;27;20399;-84
2021/06/29 01:44:12;;;;;;;69.85;45.58;;;;;;;23.24;72.53;99089.03;5193939;27;20418;-83
2021/06/29 01:51:12;;;;;;;64.95;46.80;;;;;;;23.97;70.73;99089.78;5146447;27;20450;-83
2021/06/29 01:54:14;;;;;;;54.22;39.22;;;;;;;24.26;69.51;99093.03;5145897;27;20513;-84
2021/06/29 01:57:21;;;;;;;58.70;45.95;;;;;;;24.38;68.77;99091.28;5149639;27;20390;-82
2021/06/29 02:00:18;;;;;;;81.40;56.35;;;;;;;24.54;68.71;99094.59;5194247;27;20405;-85
2021/06/29 02:03:18;;;;;;;83.22;57.80;;;;;;;24.74;68.23;99098.03;5089673;28;20797;-84
2021/06/29 02:06:14;;;;;;;68.25;50.50;;;;;;;24.95;67.57;99103.13;5193742;27;20537;-84
2021/06/29 02:09:09;;;;;;;72.28;49.42;;;;;;;25.11;67.16;99100.94;5193766;27;20532;-81
2021/06/29 02:12:05;;;;;;;74.43;51.47;;;;;;;25.29;66.65;99101.00;5195959;27;20459;-80
2021/06/29 02:15:00;;;;;;;70.43;49.97;;;;;;;25.41;65.99;99101.94;5193578;27;20393;-83
2021/06/29 02:18:04;;;;;;;69.75;49.05;;;;;;;25.54;65.44;99105.59;5146489;27;21014;-83
2021/06/29 02:20:59;;;;;;;70.20;47.35;;;;;;;25.53;65.24;99095.72;5193996;27;20733;-81
2021/06/29 02:23:59;;;;;;;61.50;40.08;;;;;;;25.58;65.20;99098.63;5146444;27;20407;-86
2021/06/29 02:26:57;;;;;;;67.07;40.92;;;;;;;25.72;64.71;99102.88;5118126;27;20902;-85
2021/06/29 02:29:52;;;;;;;66.28;38.40;;;;;;;25.89;64.06;99104.00;5193635;27;20888;-81
2021/06/29 02:32:48;;;;;;;47.67;30.95;;;;;;;26.03;63.56;99103.88;5151827;27;20336;-83
2021/06/29 02:36:00;;;;;;;48.67;29.73;;;;;;;26.09;63.20;99105.66;5114315;27;20407;-86
2021/06/29 02:39:00;;;;;;;51.55;25.48;;;;;;;26.21;62.39;99101.09;4466240;27;18779616;-87
2021/06/29 02:41:36;;;;;;;44.80;24.95;;;;;;;26.28;62.17;99112.81;4511766;27;18575846;-86
2021/06/29 02:44:30;;;;;;;40.40;22.35;;;;;;;26.27;61.94;99113.88;5122165;27;20400;-83
2021/06/29 02:47:25;;;;;;;31.35;20.92;;;;;;;26.37;61.76;99099.63;5151689;27;20830;-81
2021/06/29 02:51:00;;;;;;;29.20;20.30;;;;;;;26.49;61.07;99113.44;5193948;27;20726;-82
2021/06/29 02:53:55;;;;;;;44.38;20.58;;;;;;;26.43;61.29;99119.78;5193551;27;20535;-81
2021/06/29 02:56:57;;;;;;;30.02;19.48;;;;;;;26.39;61.08;99119.41;5193384;27;20402;-78
2021/06/29 02:59:51;;;;;;;30.30;19.00;;;;;;;26.40;61.00;99124.69;5193758;27;20410;-79
2021/06/29 03:02:47;;;;;;;29.63;18.00;;;;;;;26.37;60.11;99116.09;5193804;27;20418;-79
2021/06/29 03:05:42;;;;;;;28.38;16.67;;;;;;;26.52;60.13;99111.06;5172920;27;20395;-79
2021/06/29 03:08:42;;;;;;;23.15;16.58;;;;;;;26.65;58.97;99101.81;5146378;27;20453;-80
2021/06/29 03:11:43;;;;;;;22.15;16.15;;;;;;;26.75;58.94;99106.72;5127988;27;20407;-81
2021/06/29 03:14:20;;;;;;;24.45;16.77;;;;;;;26.82;58.59;99119.28;4486495;27;17874635;-82
2021/06/29 03:17:15;;;;;;;22.35;16.13;;;;;;;26.84;58.17;99114.38;5193142;27;20402;-78
2021/06/29 03:20:11;;;;;;;23.58;15.05;;;;;;;26.70;57.22;99118.38;5143389;27;20359;-78
2021/06/29 03:23:07;;;;;;;24.67;14.27;;;;;;;26.59;57.39;99124.66;5172735;27;19926;-77
2021/06/29 03:26:03;;;;;;;19.60;13.60;;;;;;;26.59;57.32;99130.13;5193666;27;20386;-76
2021/06/29 03:28:58;;;;;;;21.90;14.63;;;;;;;26.66;56.76;99133.63;5193542;27;20394;-79
2021/06/29 03:31:53;;;;;;;23.92;13.73;;;;;;;26.84;56.39;99133.56;5173281;27;20117;-79
2021/06/29 03:34:49;;;;;;;19.70;13.52;;;;;;;27.03;55.77;99136.25;5131248;27;20329;-80
2021/06/29 03:37:43;;;;;;;19.23;13.27;;;;;;;27.24;55.17;99141.22;5119573;27;20953;-78
2021/06/29 03:40:39;;;;;;;21.55;14.60;;;;;;;27.23;55.32;99136.81;5131185;27;20692;-78
2021/06/29 03:43:37;;;;;;;21.38;14.32;;;;;;;27.43;55.35;99141.97;5193842;27;20433;-78
2021/06/29 03:46:33;;;;;;;20.00;13.55;;;;;;;27.64;54.65;99129.53;5193591;27;20966;-79
2021/06/29 03:49:28;;;;;;;19.08;14.55;;;;;;;27.81;53.90;99137.94;5172486;27;19926;-77
2021/06/29 03:52:23;;;;;;;22.92;12.98;;;;;;;27.82;52.73;99137.69;5193529;27;20398;-79
2021/06/29 03:55:18;;;;;;;23.33;12.80;;;;;;;27.84;52.94;99138.31;5151653;27;20258;-77
2021/06/29 03:57:56;;;;;;;18.80;13.30;;;;;;;27.92;53.01;99139.03;4505127;27;18760931;-78
2021/06/29 04:00:51;;;;;;;14.00;12.45;;;;;;;27.96;52.78;99134.72;5193239;27;20508;-80
2021/06/29 04:03:29;;;;;;;17.95;11.82;;;;;;;27.95;52.59;99138.53;4465555;27;18736873;-80
2021/06/29 04:06:26;;;;;;;16.50;12.73;;;;;;;28.03;52.27;99138.16;5151706;27;20450;-79
2021/06/29 04:09:23;;;;;;;17.30;11.95;;;;;;;28.15;52.32;99143.63;5115253;27;20893;-79
2021/06/29 04:12:27;;;;;;;22.17;12.57;;;;;;;28.07;52.00;99144.84;5097103;28;20358;-79
2021/06/29 04:15:23;;;;;;;18.40;13.07;;;;;;;27.93;52.81;99137.94;5193539;27;20900;-79
2021/06/29 04:18:19;;;;;;;22.40;13.60;;;;;;;28.12;53.08;99144.13;5193927;27;20406;-78
2021/06/29 04:21:14;;;;;;;24.52;13.30;;;;;;;28.30;53.16;99133.78;5193561;27;20466;-78
2021/06/29 04:24:14;;;;;;;16.08;13.43;;;;;;;28.52;52.94;99149.66;5124934;27;20346;-77
2021/06/29 04:27:08;;;;;;;18.48;13.52;;;;;;;28.61;52.76;99145.44;5119522;27;20395;-78
2021/06/29 04:30:13;;;;;;;21.60;12.85;;;;;;;28.52;52.41;99144.16;5132976;27;20775;-76
2021/06/29 04:33:08;;;;;;;23.13;12.90;;;;;;;28.59;52.14;99141.28;5193670;27;20507;-78
2021/06/29 04:36:04;;;;;;;16.10;12.48;;;;;;;28.67;51.23;99149.13;5137287;27;20130;-78
2021/06/29 04:38:58;;;;;;;21.60;13.25;;;;;;;28.67;51.42;99144.47;5193876;27;20433;-80
2021/06/29 04:41:53;;;;;;;17.00;12.68;;;;;;;28.56;52.69;99148.09;5151677;27;20138;-78
2021/06/29 04:44:45;;;;;;;17.15;12.98;;;;;;;28.65;52.70;99146.63;5121724;27;20449;-80
2021/06/29 04:47:46;;;;;;;17.88;13.38;;;;;;;29.01;51.62;99147.34;5150282;27;20391;-79
2021/06/29 04:50:42;;;;;;;15.40;13.60;;;;;;;29.10;51.60;99147.75;5193471;27;20390;-78
2021/06/29 04:53:40;;;;;;;22.33;13.82;;;;;;;28.97;50.54;99135.94;5114487;27;20735;-79
2021/06/29 04:56:36;;;;;;;19.27;15.90;;;;;;;29.10;50.80;99139.50;5131125;27;20328;-79
2021/06/29 04:59:30;;;;;;;25.25;15.20;;;;;;;29.09;50.57;99127.66;5193546;27;20383;-79
2021/06/29 05:02:26;;;;;;;20.27;14.52;;;;;;;29.19;50.07;99144.34;5151622;27;20134;-76
2021/06/29 05:05:21;;;;;;;23.95;15.05;;;;;;;29.31;49.95;99137.94;5175502;27;20431;-78
2021/06/29 05:08:17;;;;;;;20.63;15.18;;;;;;;29.44;50.05;99137.59;5193534;27;20386;-77
2021/06/29 05:11:12;;;;;;;19.67;13.85;;;;;;;29.61;49.59;99127.44;5193576;27;20402;-76
2021/06/29 05:14:21;;;;;;;20.60;13.77;;;;;;;29.52;49.37;99132.47;5128471;27;20736;-76
2021/06/29 05:17:13;;;;;;;17.50;13.80;;;;;;;29.70;49.15;99122.31;5121753;27;20901;-78
2021/06/29 05:20:05;;;;;;;16.35;13.65;;;;;;;29.84;48.80;99122.81;5110344;27;20167;-76
2021/06/29 05:23:15;;;;;;;18.13;13.93;;;;;;;29.93;48.32;99127.63;5149063;27;20402;-80
2021/06/29 05:26:11;;;;;;;22.73;14.90;;;;;;;30.10;46.92;99124.81;5151523;27;20321;-77
2021/06/29 05:29:06;;;;;;;23.55;13.77;;;;;;;30.17;47.50;99125.50;5193286;27;20892;-78
2021/06/29 05:32:02;;;;;;;34.78;14.65;;;;;;;30.37;47.10;99121.34;5193832;27;20861;-78
2021/06/29 05:34:54;;;;;;;33.30;15.02;;;;;;;30.52;45.91;99123.44;5121759;27;20460;-79
2021/06/29 05:37:49;;;;;;;17.48;14.27;;;;;;;30.51;46.05;99125.38;5150753;27;20395;-79
2021/06/29 05:40:57;;;;;;;22.42;14.20;;;;;;;30.68;45.68;99128.84;5088001;28;20149;-77
2021/06/29 05:43:52;;;;;;;20.40;13.60;;;;;;;30.80;45.39;99119.63;5193734;27;20390;-79
2021/06/29 05:46:48;;;;;;;20.20;13.52;;;;;;;30.97;45.06;99120.34;5193574;27;20448;-77
2021/06/29 05:49:43;;;;;;;22.08;13.00;;;;;;;31.09;44.60;99128.47;5183947;27;20528;-79
2021/06/29 05:52:38;;;;;;;19.80;13.30;;;;;;;31.20;44.64;99124.69;5151716;27;20138;-79
2021/06/29 05:55:33;;;;;;;15.93;13.38;;;;;;;31.37;44.19;99124.59;5193573;27;20847;-77
2021/06/29 05:58:28;;;;;;;23.50;14.18;;;;;;;31.39;43.75;99127.91;5151896;27;20324;-76
2021/06/29 06:01:05;;;;;;;16.93;14.20;;;;;;;31.25;44.17;99130.25;4501048;27;17966156;-75
2021/06/29 06:04:00;;;;;;;25.27;14.20;;;;;;;31.06;44.58;99129.81;5188078;27;20420;-77
2021/06/29 06:07:28;;;;;;;21.73;14.48;;;;;;;31.28;44.18;99129.72;5194007;27;20431;-77
2021/06/29 06:10:19;;;;;;;28.42;14.85;;;;;;;31.34;44.08;99125.97;5110577;27;20892;-78
2021/06/29 06:13:15;;;;;;;23.15;13.15;;;;;;;31.34;44.52;99119.59;5193812;27;20539;-77
2021/06/29 06:16:10;;;;;;;23.02;13.82;;;;;;;31.33;44.21;99129.81;5151563;27;20122;-80
2021/06/29 06:19:05;;;;;;;21.60;15.10;;;;;;;31.60;44.00;99127.00;5194051;27;20410;-81
2021/06/29 06:22:00;;;;;;;20.08;14.35;;;;;;;31.63;42.65;99126.47;5151778;27;20663;-80
2021/06/29 06:25:10;;;;;;;16.67;13.55;;;;;;;31.44;43.20;99130.72;5149011;27;20409;-80
2021/06/29 06:28:02;;;;;;;19.38;13.07;;;;;;;31.56;43.16;99125.84;5114988;27;20415;-80
2021/06/29 06:30:58;;;;;;;16.17;13.05;;;;;;;31.88;41.77;99119.44;5194048;27;20383;-79
2021/06/29 06:33:59;;;;;;;19.83;12.32;;;;;;;32.11;41.31;99120.94;5146442;27;20406;-78
2021/06/29 06:36:54;;;;;;;15.65;12.88;;;;;;;32.38;40.73;99118.00;5193941;27;20397;-79
2021/06/29 06:39:49;;;;;;;17.63;12.65;;;;;;;32.35;41.36;99124.94;5151876;27;20126;-78
2021/06/29 06:42:46;;;;;;;17.90;13.45;;;;;;;32.68;40.71;99122.00;5193995;27;20431;-78
2021/06/29 06:45:41;;;;;;;11.85;10.73;;;;;;;32.87;39.16;99110.16;5193837;27;20390;-78
2021/06/29 06:48:37;;;;;;;13.00;10.82;;;;;;;32.75;39.46;99111.50;5151857;27;20130;-78
2021/06/29 06:51:34;;;;;;;19.88;10.60;;;;;;;32.85;40.03;99106.00;5114549;27;20406;-87
2021/06/29 06:54:40;;;;;;;23.45;11.77;;;;;;;33.07;39.62;99105.78;5149456;27;20402;-87
2021/06/29 06:57:45;;;;;;;16.05;11.07;;;;;;;33.30;39.29;99108.00;5133457;27;20793;-81
2021/06/29 07:00:40;;;;;;;22.88;10.60;;;;;;;33.50;38.70;99101.63;5194210;27;20374;-91
2021/06/29 07:03:47;;;;;;;13.95;10.55;;;;;;;33.77;38.40;99097.69;5144188;27;20960;-83
2021/06/29 07:06:48;;;;;;;14.82;10.15;;;;;;;34.00;37.77;99104.59;5116879;27;20951;-83
2021/06/29 07:09:44;;;;;;;14.32;9.82;;;;;;;34.14;37.51;99099.28;5194089;27;20742;-83
2021/06/29 07:12:50;;;;;;;18.08;10.20;;;;;;;34.39;36.93;99085.31;5150665;27;20395;-82
2021/06/29 07:15:54;;;;;;;12.43;9.60;;;;;;;34.48;36.69;99083.56;5110736;27;20395;-82
2021/06/29 07:18:49;;;;;;;12.90;9.65;;;;;;;34.60;36.84;99085.22;5109051;27;20141;-84
2021/06/29 07:21:38;;;;;;;23.38;9.52;;;;;;;34.78;35.82;99081.75;5111430;27;20377;-83
2021/06/29 07:24:16;;;;;;;20.45;9.60;;;;;;;34.69;35.54;99086.28;5174309;27;20174;-83
2021/06/29 07:26:55;;;;;;;12.15;9.20;;;;;;;34.61;35.50;99081.34;5172882;27;20411;-81
2021/06/29 07:29:33;;;;;;;13.65;9.77;;;;;;;34.75;35.53;99085.94;5193845;27;20209;-81
2021/06/29 07:32:10;;;;;;;17.35;8.50;;;;;;;34.89;35.24;99077.78;5111352;27;20886;-80
2021/06/29 07:34:52;;;;;;;13.75;8.90;;;;;;;35.12;35.07;99076.25;5131355;27;20594;-82
2021/06/29 07:37:31;;;;;;;15.40;9.20;;;;;;;35.26;34.93;99082.81;5172780;27;20175;-81
2021/06/29 07:40:09;;;;;;;13.25;8.48;;;;;;;35.48;34.64;99084.28;5111084;27;20383;-82
2021/06/29 07:42:46;;;;;;;14.35;8.70;;;;;;;35.31;34.66;99084.69;5090856;27;20394;-82
2021/06/29 07:45:29;;;;;;;14.95;8.48;;;;;;;35.43;34.49;99087.94;5111330;27;20384;-86
2021/06/29 07:48:08;;;;;;;14.68;9.18;;;;;;;35.62;33.68;99079.72;5110973;27;20368;-81
2021/06/29 07:50:47;;;;;;;17.10;8.35;;;;;;;35.56;33.37;99091.19;5194112;27;20654;-85
2021/06/29 07:53:24;;;;;;;13.25;9.60;;;;;;;35.34;33.51;99097.19;5110911;27;20380;-79
2021/06/29 07:56:02;;;;;;;11.98;8.60;;;;;;;35.10;32.67;99083.25;5111111;27;20380;-82
2021/06/29 07:58:42;;;;;;;14.73;9.13;;;;;;;34.93;34.02;99098.31;5110845;27;20384;-83
2021/06/29 08:01:21;;;;;;;13.85;9.07;;;;;;;35.15;34.42;99105.41;5173118;27;19923;-81
2021/06/29 08:03:59;;;;;;;12.05;8.55;;;;;;;35.37;34.03;99099.41;5125480;27;20591;-81
2021/06/29 08:06:37;;;;;;;16.15;8.02;;;;;;;35.74;33.33;99096.81;5113648;27;20754;-84
2021/06/29 08:09:15;;;;;;;10.35;8.15;;;;;;;35.34;32.48;99092.47;5110644;27;20388;-83
2021/06/29 08:11:53;;;;;;;21.95;8.38;;;;;;;35.15;33.81;99088.75;5070532;28;20406;-82
2021/06/29 08:14:31;;;;;;;12.35;8.23;;;;;;;35.54;33.77;99101.75;5111043;27;20384;-82
2021/06/29 08:17:09;;;;;;;21.20;9.02;;;;;;;35.58;32.88;99094.47;5001263;28;1404032;-84
2021/06/29 08:19:48;;;;;;;14.32;8.02;;;;;;;35.69;32.95;99091.31;5090884;28;20176;-85
2021/06/29 08:22:24;;;;;;;11.32;8.75;;;;;;;35.78;32.88;99087.91;5105282;27;1418696;-83
2021/06/29 08:25:04;;;;;;;14.68;7.45;;;;;;;35.46;33.08;99090.13;5123637;27;20385;-84
2021/06/29 08:27:43;;;;;;;9.38;7.82;;;;;;;35.73;33.47;99088.75;5131411;27;20131;-84
2021/06/29 08:30:22;;;;;;;14.30;6.50;;;;;;;35.82;32.80;99087.00;5131581;27;20123;-84
2021/06/29 08:32:59;;;;;;;15.18;7.55;;;;;;;36.01;32.46;99087.09;5070779;28;20387;-84
2021/06/29 08:35:43;;;;;;;10.45;7.40;;;;;;;35.80;32.75;99080.91;5111304;27;20384;-82
2021/06/29 08:38:22;;;;;;;13.88;7.57;;;;;;;36.14;32.02;99078.00;5131012;27;20394;-83
2021/06/29 08:41:00;;;;;;;11.43;6.95;;;;;;;36.51;32.12;99067.28;5081923;27;20398;-82
2021/06/29 08:43:39;;;;;;;15.20;8.07;;;;;;;36.49;32.42;99075.13;5110948;27;20747;-82
2021/06/29 08:46:16;;;;;;;14.38;7.65;;;;;;;36.60;32.11;99071.06;5090227;27;20888;-81
2021/06/29 08:48:54;;;;;;;16.95;7.22;;;;;;;36.78;31.42;99077.72;5110643;27;20395;-85
2021/06/29 08:51:34;;;;;;;10.60;5.90;;;;;;;37.06;30.64;99073.97;5110738;27;20414;-83
2021/06/29 08:54:09;;;;;;;9.25;6.43;;;;;;;37.34;30.83;99072.09;5103997;27;1456043;-84
2021/06/29 08:56:48;;;;;;;12.77;6.15;;;;;;;37.28;30.50;99064.13;5131423;27;20124;-84
2021/06/29 08:59:26;;;;;;;14.32;7.35;;;;;;;36.59;31.09;99052.66;5111050;27;20376;-85
2021/06/29 09:02:04;;;;;;;19.52;8.15;;;;;;;36.96;31.28;99063.00;5164535;27;20173;-80
2021/06/29 09:04:43;;;;;;;12.70;6.78;;;;;;;37.29;30.90;99066.59;5110540;27;20391;-83
2021/06/29 09:07:25;;;;;;;13.50;6.97;;;;;;;37.44;30.76;99073.91;5110953;27;20383;-80
2021/06/29 09:10:03;;;;;;;11.02;6.28;;;;;;;37.50;30.28;99066.25;5111009;27;20463;-81
2021/06/29 09:12:42;;;;;;;14.75;6.88;;;;;;;37.42;30.38;99057.47;5069767;28;20398;-81
2021/06/29 09:15:25;;;;;;;13.35;6.97;;;;;;;37.69;29.96;99058.66;5172598;27;20186;-80
2021/06/29 09:18:04;;;;;;;15.65;7.25;;;;;;;37.74;30.47;99052.16;5106090;27;1388817;-84
2021/06/29 09:20:46;;;;;;;18.50;7.20;;;;;;;37.99;29.71;99050.81;5172482;27;20518;-80
2021/06/29 09:23:40;;;;;;;10.18;6.50;;;;;;;38.24;29.22;99047.50;5069804;28;20422;-80
2021/06/29 09:26:23;;;;;;;12.00;6.63;;;;;;;38.37;28.64;99052.28;5123099;27;20396;-80
2021/06/29 09:29:03;;;;;;;10.65;6.32;;;;;;;38.23;28.57;99045.84;5131411;27;20169;-79
2021/06/29 09:31:43;;;;;;;9.65;6.47;;;;;;;38.44;27.54;99045.41;5110361;27;20384;-81
2021/06/29 09:34:21;;;;;;;11.27;6.80;;;;;;;38.73;28.01;99036.63;5088344;27;20456;-79
2021/06/29 09:36:58;;;;;;;17.65;7.30;;;;;;;39.21;27.93;99056.41;5097018;27;1416044;-82
2021/06/29 09:39:36;;;;;;;10.88;6.78;;;;;;;39.40;27.20;99047.03;5110898;27;20395;-77
2021/06/29 09:42:14;;;;;;;15.23;7.03;;;;;;;39.14;26.89;99046.84;5110727;27;20391;-79
2021/06/29 09:44:52;;;;;;;10.25;6.57;;;;;;;39.53;26.70;99035.75;5070198;27;20379;-81
2021/06/29 09:47:32;;;;;;;21.23;6.50;;;;;;;40.10;25.92;99043.38;5111049;27;20383;-79
2021/06/29 09:50:39;;;;;;;9.50;6.20;;;;;;;40.48;24.59;99051.22;5111184;27;20399;-80
2021/06/29 09:53:26;;;;;;;14.02;6.20;;;;;;;40.32;25.22;99044.44;5110383;27;20894;-79
2021/06/29 09:56:06;;;;;;;12.43;5.85;;;;;;;40.12;24.84;99038.31;5173030;27;20126;-78
2021/06/29 09:58:47;;;;;;;12.60;6.07;;;;;;;40.22;24.70;99035.19;5111029;27;20376;-78
2021/06/29 10:01:28;;;;;;;19.98;6.20;;;;;;;40.35;24.35;99046.56;5110589;27;20390;-78
2021/06/29 10:04:07;;;;;;;14.10;5.90;;;;;;;41.04;24.33;99051.41;5070079;28;20394;-77
2021/06/29 10:06:48;;;;;;;14.55;6.03;;;;;;;41.38;23.74;99048.56;5110968;27;20388;-78
2021/06/29 10:09:26;;;;;;;10.10;5.93;;;;;;;41.77;23.00;99057.84;5110739;27;20384;-80
2021/06/29 10:12:05;;;;;;;12.60;6.32;;;;;;;42.08;23.06;99051.94;5172692;27;20175;-78
2021/06/29 10:14:42;;;;;;;12.57;6.70;;;;;;;41.67;22.87;99047.81;5111218;27;20385;-79
2021/06/29 10:17:20;;;;;;;10.52;6.25;;;;;;;41.81;23.43;99041.16;5111033;27;20384;-77
2021/06/29 10:20:12;;;;;;;15.65;6.88;;;;;;;42.01;23.18;99040.41;5110797;27;20387;-78
2021/06/29 10:22:52;;;;;;;11.25;6.75;;;;;;;42.12;23.31;99036.03;5111239;27;20371;-79
2021/06/29 10:25:29;;;;;;;12.80;6.35;;;;;;;42.34;22.45;99036.94;5110511;27;20384;-79
2021/06/29 10:28:10;;;;;;;9.02;6.30;;;;;;;42.46;22.83;99028.56;5193812;27;20124;-79
2021/06/29 10:30:47;;;;;;;13.57;7.03;;;;;;;42.28;22.39;99027.06;5110557;27;20399;-78
2021/06/29 10:33:26;;;;;;;11.18;7.15;;;;;;;42.31;22.44;99027.19;5110738;27;20387;-77
2021/06/29 10:36:04;;;;;;;11.77;7.80;;;;;;;42.63;22.49;99027.63;5096746;27;20389;-78
2021/06/29 10:38:42;;;;;;;16.65;7.63;;;;;;;42.58;22.20;99025.00;5104545;27;20392;-77
2021/06/29 10:41:22;;;;;;;13.43;7.13;;;;;;;42.69;22.40;99026.25;5150502;27;20471;-79
2021/06/29 10:44:01;;;;;;;11.93;5.82;;;;;;;43.28;21.36;99019.59;5172863;27;20568;-78
2021/06/29 10:46:41;;;;;;;15.00;6.03;;;;;;;42.77;21.25;99025.38;5110711;27;20917;-77
2021/06/29 10:49:30;;;;;;;16.08;6.32;;;;;;;43.17;20.78;99024.84;5110840;27;20385;-79
2021/06/29 10:52:31;;;;;;;9.30;5.22;;;;;;;43.44;20.67;99029.00;5109541;27;20372;-76
2021/06/29 10:55:26;;;;;;;10.05;5.50;;;;;;;43.31;19.69;99024.53;5110615;27;20739;-78
2021/06/29 10:58:04;;;;;;;9.50;5.40;;;;;;;43.12;20.61;99014.66;5110744;27;20376;-78
2021/06/29 11:00:42;;;;;;;10.32;5.30;;;;;;;43.62;19.67;99029.66;5110799;27;20380;-78
2021/06/29 11:03:20;;;;;;;10.77;5.90;;;;;;;43.36;20.52;99018.69;5110942;27;20901;-78
2021/06/29 11:06:00;;;;;;;14.63;6.10;;;;;;;44.06;20.17;99016.66;5070300;28;20379;-79
2021/06/29 11:08:48;;;;;;;9.27;5.63;;;;;;;44.29;19.11;99013.38;5111149;27;20747;-78
2021/06/29 11:11:27;;;;;;;8.48;5.38;;;;;;;44.48;19.67;99016.38;5110878;27;20372;-79
2021/06/29 11:14:27;;;;;;;7.45;5.80;;;;;;;44.30;18.98;99015.00;5110773;27;20380;-78
2021/06/29 11:17:05;;;;;;;9.90;5.75;;;;;;;43.88;19.34;99015.25;5194163;27;20387;-79
2021/06/29 11:20:03;;;;;;;12.32;5.40;;;;;;;44.16;18.86;99011.69;5193756;27;20406;-79
2021/06/29 11:22:54;;;;;;;11.63;5.68;;;;;;;44.99;18.40;99013.84;5110378;27;20913;-80
2021/06/29 11:25:50;;;;;;;10.80;5.50;;;;;;;44.46;18.78;99007.47;5103646;27;1431236;-78
2021/06/29 11:28:37;;;;;;;10.68;6.03;;;;;;;45.06;18.76;99007.59;5110778;27;20380;-78
2021/06/29 11:31:24;;;;;;;10.75;5.88;;;;;;;45.69;18.25;99002.03;5172809;27;20308;-77
2021/06/29 11:34:07;;;;;;;8.70;5.28;;;;;;;46.28;17.81;98988.13;5090670;28;20105;-78
2021/06/29 11:36:50;;;;;;;11.32;5.10;;;;;;;46.59;17.43;98993.66;5110884;27;20384;-79
2021/06/29 11:39:30;;;;;;;8.25;5.03;;;;;;;46.52;16.85;98999.13;5110852;27;20375;-78
2021/06/29 11:42:20;;;;;;;5.32;4.38;;;;;;;46.77;16.78;98985.56;5111421;27;20893;-79
2021/06/29 11:45:03;;;;;;;6.63;4.53;;;;;;;47.09;16.54;98983.34;5111009;27;20369;-78
2021/06/29 11:47:42;;;;;;;8.10;4.90;;;;;;;47.12;16.49;98987.44;5172888;27;19926;-79
2021/06/29 11:50:20;;;;;;;14.57;4.93;;;;;;;47.37;16.68;98990.78;5111073;27;20388;-79
2021/06/29 11:53:01;;;;;;;10.55;5.20;;;;;;;46.52;17.59;98998.31;5110926;27;20898;-80
2021/06/29 11:55:40;;;;;;;8.38;4.38;;;;;;;46.95;16.52;98992.41;5172683;27;20126;-78
2021/06/29 11:58:17;;;;;;;29.13;5.53;;;;;;;47.58;15.25;98993.13;5151830;27;20389;-78
2021/06/29 12:01:09;;;;;;;9.68;3.80;;;;;;;47.71;14.97;98985.31;5110873;27;20384;-79
2021/06/29 12:03:47;;;;;;;8.50;4.10;;;;;;;48.13;15.17;98988.00;5110650;27;20384;-77
2021/06/29 12:06:37;;;;;;;6.75;3.85;;;;;;;48.30;14.63;98976.09;5110334;27;20380;-79
2021/06/29 12:09:17;;;;;;;11.75;4.32;;;;;;;48.37;15.12;98981.84;5111044;27;20387;-79
2021/06/29 12:12:17;;;;;;;8.18;4.32;;;;;;;48.34;15.04;98988.28;5110748;27;20395;-77
2021/06/29 12:15:03;;;;;;;7.78;4.30;;;;;;;48.57;14.85;98979.69;5110745;27;20389;-79
2021/06/29 12:18:12;;;;;;;7.80;3.92;;;;;;;48.77;14.83;98980.34;5110817;27;20703;-77
2021/06/29 12:20:53;;;;;;;7.70;4.40;;;;;;;48.58;14.93;98983.34;5110877;27;20384;-78
2021/06/29 12:23:35;;;;;;;6.72;3.60;;;;;;;47.63;14.88;98973.00;5110791;27;20388;-78
2021/06/29 12:26:12;;;;;;;10.50;3.70;;;;;;;46.56;15.05;98956.81;5110759;27;20391;-79
2021/06/29 12:28:51;;;;;;;7.43;3.78;;;;;;;46.67;15.14;98955.03;5193783;27;20512;-79
2021/06/29 12:31:29;;;;;;;9.02;3.47;;;;;;;46.24;15.40;98954.94;5151830;27;20388;-79
2021/06/29 12:34:07;;;;;;;7.95;4.03;;;;;;;45.36;16.25;98947.91;5070304;28;20379;-78
2021/06/29 12:36:46;;;;;;;10.18;3.85;;;;;;;45.84;16.79;98951.56;5193851;27;20127;-79
2021/06/29 12:39:24;;;;;;;9.70;3.97;;;;;;;47.07;15.85;98951.81;5172701;27;20415;-78
2021/06/29 12:42:09;;;;;;;8.82;3.95;;;;;;;47.15;16.01;98952.75;5110721;27;20727;-77
2021/06/29 12:44:47;;;;;;;13.32;4.45;;;;;;;46.99;16.30;98944.38;5110905;27;20134;-78
2021/06/29 12:47:26;;;;;;;14.43;4.32;;;;;;;46.24;17.17;98951.31;5110603;27;20387;-77
2021/06/29 12:50:06;;;;;;;13.75;4.18;;;;;;;47.23;16.74;98937.53;5110404;27;20391;-78
2021/06/29 12:52:44;;;;;;;11.32;4.07;;;;;;;48.43;15.74;98947.50;5070055;28;21238;-79
2021/06/29 12:55:23;;;;;;;6.72;3.80;;;;;;;49.00;14.89;98939.66;5110822;27;20890;-79
2021/06/29 12:58:12;;;;;;;7.15;3.50;;;;;;;49.43;14.21;98942.91;5110837;27;20388;-78
2021/06/29 13:00:50;;;;;;;9.50;3.90;;;;;;;49.13;14.40;98938.19;5110716;27;20365;-78
2021/06/29 13:03:32;;;;;;;4.63;3.08;;;;;;;49.01;14.44;98944.13;5131447;27;20136;-78
2021/06/29 13:06:14;;;;;;;8.02;3.30;;;;;;;49.77;13.40;98941.59;5172315;27;20182;-79
2021/06/29 13:09:06;;;;;;;7.05;3.50;;;;;;;49.20;14.00;98935.44;5069969;28;20383;-79